createdAt,value
2023-04-29T00:00:29.148Z,95005.00
2023-04-29T00:01:29.172Z,95007.00
2023-04-29T00:02:31.865Z,95009.00
2023-04-29T00:03:29.615Z,95009.00
2023-04-29T00:04:29.413Z,95011.00
2023-04-29T00:05:29.253Z,95009.00
2023-04-29T00:06:29.330Z,95005.00
2023-04-29T00:07:29.162Z,95001.00
2023-04-29T00:08:29.186Z,94997.00
2023-04-29T00:09:29.185Z,94999.00
2023-04-29T00:10:29.152Z,94997.00
2023-04-29T00:11:29.154Z,94995.00
2023-04-29T00:12:29.146Z,94995.00
2023-04-29T00:13:29.150Z,94995.00
2023-04-29T00:14:29.168Z,94995.00
2023-04-29T00:15:29.164Z,94997.00
2023-04-29T00:16:29.123Z,94997.00
2023-04-29T00:17:29.173Z,94999.00
2023-04-29T00:18:29.128Z,94995.00
2023-04-29T00:19:29.089Z,94993.00
2023-04-29T00:20:29.114Z,94991.00
2023-04-29T00:21:29.087Z,94991.00
2023-04-29T00:22:29.070Z,94991.00
2023-04-29T00:23:29.056Z,94991.00
2023-04-29T00:24:29.048Z,94993.00
2023-04-29T00:25:29.087Z,94999.00
2023-04-29T00:26:29.029Z,95001.00
2023-04-29T00:27:29.033Z,95001.00
2023-04-29T00:28:29.034Z,95003.00
2023-04-29T00:29:29.014Z,95003.00
2023-04-29T00:30:29.004Z,95007.00
2023-04-29T00:31:29.077Z,95009.00
2023-04-29T00:32:29.044Z,95013.00
2023-04-29T00:33:28.985Z,95017.00
2023-04-29T00:34:29.008Z,95019.00
2023-04-29T00:35:28.994Z,95017.00
2023-04-29T00:36:28.952Z,95013.00
2023-04-29T00:37:28.997Z,95005.00
2023-04-29T00:38:28.954Z,95003.00
2023-04-29T00:39:28.946Z,95003.00
2023-04-29T00:40:28.944Z,95007.00
2023-04-29T00:41:28.931Z,95009.00
2023-04-29T00:42:28.962Z,95011.00
2023-04-29T00:43:29.004Z,95011.00
2023-04-29T00:44:29.048Z,95009.00
2023-04-29T00:45:29.072Z,95009.00
2023-04-29T00:46:29.135Z,95005.00
2023-04-29T00:47:29.163Z,95001.00
2023-04-29T00:48:29.228Z,94997.00
2023-04-29T00:49:29.232Z,94999.00
2023-04-29T00:50:29.258Z,94997.00
2023-04-29T00:51:29.298Z,95001.00
2023-04-29T00:52:29.353Z,95001.00
2023-04-29T00:53:29.399Z,95003.00
2023-04-29T00:54:29.453Z,95001.00
2023-04-29T00:55:29.458Z,95003.00
2023-04-29T00:56:29.510Z,95001.00
2023-04-29T00:57:29.564Z,95001.00
2023-04-29T00:58:29.596Z,95001.00
2023-04-29T00:59:29.607Z,95001.00
2023-04-29T01:00:29.642Z,95001.00
2023-04-29T01:01:29.810Z,95005.00
2023-04-29T01:02:29.820Z,95001.00
2023-04-29T01:03:29.822Z,95003.00
2023-04-29T01:04:29.855Z,95003.00
2023-04-29T01:05:29.842Z,95005.00
2023-04-29T01:06:29.906Z,95009.00
2023-04-29T01:07:29.923Z,95005.00
2023-04-29T01:08:29.982Z,95005.00
2023-04-29T01:09:30.043Z,95001.00
2023-04-29T01:10:30.078Z,94997.00
2023-04-29T01:11:30.123Z,94995.00
2023-04-29T01:12:30.176Z,94989.00
2023-04-29T01:13:30.222Z,94981.00
2023-04-29T01:14:30.218Z,94977.00
2023-04-29T01:15:30.248Z,94972.00
2023-04-29T01:16:30.438Z,94972.00
2023-04-29T01:17:30.397Z,94973.00
2023-04-29T01:18:30.457Z,94975.00
2023-04-29T01:19:30.441Z,94977.00
2023-04-29T01:20:30.527Z,94979.00
2023-04-29T01:21:30.544Z,94977.00
2023-04-29T01:22:30.578Z,94983.00
2023-04-29T01:23:30.631Z,94983.00
2023-04-29T01:24:30.668Z,94985.00
2023-04-29T01:25:30.709Z,94985.00
2023-04-29T01:26:30.750Z,94983.00
2023-04-29T01:27:30.796Z,94983.00
2023-04-29T01:28:30.826Z,94981.00
2023-04-29T01:29:30.895Z,94979.00
2023-04-29T01:30:30.918Z,94983.00
2023-04-29T01:31:31.066Z,94981.00
2023-04-29T01:32:31.994Z,94979.00
2023-04-29T01:33:31.076Z,94977.00
2023-04-29T01:34:31.157Z,94975.00
2023-04-29T01:35:31.150Z,94968.00
2023-04-29T01:36:31.191Z,94966.00
2023-04-29T01:37:31.263Z,94962.00
2023-04-29T01:38:31.294Z,94962.00
2023-04-29T01:39:31.311Z,94960.00
2023-04-29T01:40:31.383Z,94962.00
2023-04-29T01:41:31.413Z,94964.00
2023-04-29T01:42:31.434Z,94964.00
2023-04-29T01:43:31.543Z,94966.00
2023-04-29T01:44:31.539Z,94964.00
2023-04-29T01:45:31.618Z,94960.00
2023-04-29T01:46:31.664Z,94962.00
2023-04-29T01:47:31.737Z,94962.00
2023-04-29T01:48:31.760Z,94960.00
2023-04-29T01:49:31.789Z,94962.00
2023-04-29T01:50:31.823Z,94962.00
2023-04-29T01:51:31.902Z,94960.00
2023-04-29T01:52:31.926Z,94956.00
2023-04-29T01:53:31.986Z,94954.00
2023-04-29T01:54:32.038Z,94954.00
2023-04-29T01:55:32.113Z,94958.00
2023-04-29T01:56:32.093Z,94956.00
2023-04-29T01:57:32.167Z,94960.00
2023-04-29T01:58:32.176Z,94960.00
2023-04-29T01:59:32.241Z,94966.00
2023-04-29T02:00:32.337Z,94964.00
2023-04-29T02:01:32.335Z,94968.00
2023-04-29T02:02:32.511Z,94964.00
2023-04-29T02:03:32.471Z,94966.00
2023-04-29T02:04:32.548Z,94964.00
2023-04-29T02:05:32.579Z,94964.00
2023-04-29T02:06:32.573Z,94960.00
2023-04-29T02:07:32.653Z,94958.00
2023-04-29T02:08:32.690Z,94958.00
2023-04-29T02:09:32.700Z,94958.00
2023-04-29T02:10:32.827Z,94954.00
2023-04-29T02:11:32.823Z,94950.00
2023-04-29T02:12:32.860Z,94948.00
2023-04-29T02:13:32.923Z,94944.00
2023-04-29T02:14:32.956Z,94944.00
2023-04-29T02:15:33.007Z,94946.00
2023-04-29T02:16:33.090Z,94942.00
2023-04-29T02:17:33.164Z,94942.00
2023-04-29T02:18:33.167Z,94938.00
2023-04-29T02:19:33.203Z,94938.00
2023-04-29T02:20:33.251Z,94936.00
2023-04-29T02:21:33.307Z,94936.00
2023-04-29T02:22:33.376Z,94930.00
2023-04-29T02:23:34.078Z,94930.00
2023-04-29T02:24:33.428Z,94932.00
2023-04-29T02:25:33.529Z,94938.00
2023-04-29T02:26:33.538Z,94942.00
2023-04-29T02:27:33.606Z,94944.00
2023-04-29T02:28:33.651Z,94948.00
2023-04-29T02:29:33.693Z,94946.00
2023-04-29T02:30:33.773Z,94946.00
2023-04-29T02:31:33.811Z,94946.00
2023-04-29T02:32:33.878Z,94944.00
2023-04-29T02:33:33.885Z,94938.00
2023-04-29T02:34:33.982Z,94938.00
2023-04-29T02:35:34.000Z,94940.00
2023-04-29T02:36:34.014Z,94938.00
2023-04-29T02:37:34.050Z,94936.00
2023-04-29T02:38:34.127Z,94934.00
2023-04-29T02:39:34.185Z,94936.00
2023-04-29T02:40:34.205Z,94938.00
2023-04-29T02:41:34.275Z,94940.00
2023-04-29T02:42:34.394Z,94946.00
2023-04-29T02:43:34.417Z,94946.00
2023-04-29T02:44:34.398Z,94946.00
2023-04-29T02:45:34.546Z,94942.00
2023-04-29T02:46:34.523Z,94942.00
2023-04-29T02:47:34.552Z,94940.00
2023-04-29T02:48:34.614Z,94944.00
2023-04-29T02:49:34.698Z,94942.00
2023-04-29T02:50:34.719Z,94942.00
2023-04-29T02:51:34.766Z,94940.00
2023-04-29T02:52:34.848Z,94940.00
2023-04-29T02:53:34.890Z,94942.00
2023-04-29T02:54:34.949Z,94938.00
2023-04-29T02:55:35.001Z,94942.00
2023-04-29T02:56:35.036Z,94950.00
2023-04-29T02:57:35.094Z,94952.00
2023-04-29T02:58:35.170Z,94956.00
2023-04-29T02:59:35.204Z,94958.00
2023-04-29T03:00:35.272Z,94958.00
2023-04-29T03:01:35.430Z,94956.00
2023-04-29T03:02:35.443Z,94962.00
2023-04-29T03:03:35.539Z,94958.00
2023-04-29T03:04:35.502Z,94958.00
2023-04-29T03:05:35.563Z,94958.00
2023-04-29T03:06:35.577Z,94960.00
2023-04-29T03:07:35.626Z,94960.00
2023-04-29T03:08:35.681Z,94958.00
2023-04-29T03:09:35.740Z,94960.00
2023-04-29T03:10:35.793Z,94960.00
2023-04-29T03:11:35.861Z,94960.00
2023-04-29T03:12:35.914Z,94960.00
2023-04-29T03:13:35.964Z,94960.00
2023-04-29T03:14:36.013Z,94956.00
2023-04-29T03:15:36.063Z,94956.00
2023-04-29T03:16:36.175Z,94956.00
2023-04-29T03:17:36.189Z,94952.00
2023-04-29T03:18:36.245Z,94954.00
2023-04-29T03:19:36.647Z,94952.00
2023-04-29T03:20:36.691Z,94948.00
2023-04-29T03:21:36.369Z,94944.00
2023-04-29T03:22:36.343Z,94942.00
2023-04-29T03:23:36.393Z,94938.00
2023-04-29T03:24:36.411Z,94936.00
2023-04-29T03:25:36.510Z,94938.00
2023-04-29T03:26:36.510Z,94936.00
2023-04-29T03:27:36.573Z,94934.00
2023-04-29T03:28:36.611Z,94934.00
2023-04-29T03:29:36.656Z,94936.00
2023-04-29T03:30:36.737Z,94934.00
2023-04-29T03:31:36.819Z,94936.00
2023-04-29T03:32:36.883Z,94934.00
2023-04-29T03:33:36.879Z,94938.00
2023-04-29T03:34:36.953Z,94940.00
2023-04-29T03:35:36.980Z,94936.00
2023-04-29T03:36:37.031Z,94936.00
2023-04-29T03:37:37.112Z,94942.00
2023-04-29T03:38:37.153Z,94944.00
2023-04-29T03:39:37.200Z,94942.00
2023-04-29T03:40:37.241Z,94942.00
2023-04-29T03:41:37.281Z,94942.00
2023-04-29T03:42:37.365Z,94944.00
2023-04-29T03:43:37.396Z,94946.00
2023-04-29T03:44:37.472Z,94946.00
2023-04-29T03:45:37.517Z,94946.00
2023-04-29T03:46:37.727Z,94944.00
2023-04-29T03:47:37.674Z,94940.00
2023-04-29T03:48:37.681Z,94934.00
2023-04-29T03:49:37.717Z,94934.00
2023-04-29T03:50:37.747Z,94932.00
2023-04-29T03:51:37.843Z,94928.00
2023-04-29T03:52:37.877Z,94926.00
2023-04-29T03:53:37.937Z,94925.00
2023-04-29T03:54:37.974Z,94928.00
2023-04-29T03:55:38.088Z,94930.00
2023-04-29T03:56:38.059Z,94930.00
2023-04-29T03:57:38.902Z,94932.00
2023-04-29T03:58:38.214Z,94932.00
2023-04-29T03:59:38.286Z,94936.00
2023-04-29T04:00:38.381Z,94938.00
2023-04-29T04:01:38.407Z,94938.00
2023-04-29T04:02:38.608Z,94936.00
2023-04-29T04:03:38.574Z,94938.00
2023-04-29T04:04:38.779Z,94938.00
2023-04-29T04:05:38.624Z,94938.00
2023-04-29T04:06:38.657Z,94938.00
2023-04-29T04:07:38.729Z,94934.00
2023-04-29T04:08:38.768Z,94938.00
2023-04-29T04:09:38.844Z,94938.00
2023-04-29T04:10:38.895Z,94934.00
2023-04-29T04:11:38.959Z,94926.00
2023-04-29T04:12:39.026Z,94932.00
2023-04-29T04:13:39.082Z,94932.00
2023-04-29T04:14:39.139Z,94934.00
2023-04-29T04:15:39.182Z,94930.00
2023-04-29T04:16:39.368Z,94932.00
2023-04-29T04:17:39.354Z,94938.00
2023-04-29T04:18:39.369Z,94934.00
2023-04-29T04:19:39.412Z,94934.00
2023-04-29T04:20:39.474Z,94934.00
2023-04-29T04:21:39.547Z,94934.00
2023-04-29T04:22:39.629Z,94932.00
2023-04-29T04:23:39.678Z,94932.00
2023-04-29T04:24:39.706Z,94938.00
2023-04-29T04:25:39.767Z,94938.00
2023-04-29T04:26:39.816Z,94940.00
2023-04-29T04:27:39.887Z,94946.00
2023-04-29T04:28:39.927Z,94950.00
2023-04-29T04:29:39.968Z,94954.00
2023-04-29T04:30:40.084Z,94956.00
2023-04-29T04:31:40.172Z,94956.00
2023-04-29T04:32:40.256Z,94956.00
2023-04-29T04:33:40.239Z,94958.00
2023-04-29T04:34:40.279Z,94960.00
2023-04-29T04:35:40.341Z,94960.00
2023-04-29T04:36:40.430Z,94960.00
2023-04-29T04:37:40.471Z,94960.00
2023-04-29T04:38:40.534Z,94960.00
2023-04-29T04:39:40.560Z,94956.00
2023-04-29T04:40:40.613Z,94960.00
2023-04-29T04:41:40.677Z,94958.00
2023-04-29T04:42:40.719Z,94960.00
2023-04-29T04:43:40.793Z,94960.00
2023-04-29T04:44:40.857Z,94962.00
2023-04-29T04:45:40.968Z,94962.00
2023-04-29T04:46:40.966Z,94962.00
2023-04-29T04:47:41.076Z,94958.00
2023-04-29T04:48:41.118Z,94958.00
2023-04-29T04:49:41.161Z,94958.00
2023-04-29T04:50:41.211Z,94958.00
2023-04-29T04:51:41.265Z,94958.00
2023-04-29T04:52:41.322Z,94958.00
2023-04-29T04:53:41.391Z,94958.00
2023-04-29T04:54:41.439Z,94954.00
2023-04-29T04:55:41.481Z,94956.00
2023-04-29T04:56:41.581Z,94954.00
2023-04-29T04:57:41.637Z,94956.00
2023-04-29T04:58:41.677Z,94958.00
2023-04-29T04:59:41.745Z,94960.00
2023-04-29T05:00:41.813Z,94962.00
2023-04-29T05:01:41.987Z,94958.00
2023-04-29T05:02:41.956Z,94962.00
2023-04-29T05:03:42.071Z,94958.00
2023-04-29T05:04:42.025Z,94960.00
2023-04-29T05:05:42.096Z,94962.00
2023-04-29T05:06:42.136Z,94960.00
2023-04-29T05:07:42.230Z,94960.00
2023-04-29T05:08:42.263Z,94962.00
2023-04-29T05:09:42.332Z,94962.00
2023-04-29T05:10:42.386Z,94960.00
2023-04-29T05:11:42.534Z,94958.00
2023-04-29T05:12:42.480Z,94958.00
2023-04-29T05:13:42.549Z,94958.00
2023-04-29T05:14:42.755Z,94960.00
2023-04-29T05:15:42.668Z,94960.00
2023-04-29T05:16:42.698Z,94960.00
2023-04-29T05:17:42.848Z,94960.00
2023-04-29T05:18:42.801Z,94962.00
2023-04-29T05:19:42.859Z,94960.00
2023-04-29T05:20:42.951Z,94958.00
2023-04-29T05:21:42.977Z,94958.00
2023-04-29T05:22:43.032Z,94960.00
2023-04-29T05:23:43.074Z,94962.00
2023-04-29T05:24:43.115Z,94958.00
2023-04-29T05:25:43.211Z,94962.00
2023-04-29T05:26:43.242Z,94962.00
2023-04-29T05:27:43.290Z,94962.00
2023-04-29T05:28:43.323Z,94962.00
2023-04-29T05:29:43.422Z,94962.00
2023-04-29T05:30:43.671Z,94962.00
2023-04-29T05:31:43.524Z,94964.00
2023-04-29T05:32:43.625Z,94966.00
2023-04-29T05:33:43.659Z,94964.00
2023-04-29T05:34:43.712Z,94964.00
2023-04-29T05:35:43.754Z,94968.00
2023-04-29T05:36:43.799Z,94966.00
2023-04-29T05:37:43.862Z,94968.00
2023-04-29T05:38:43.930Z,94968.00
2023-04-29T05:39:43.981Z,94970.00
2023-04-29T05:40:44.058Z,94968.00
2023-04-29T05:41:44.091Z,94966.00
2023-04-29T05:42:44.136Z,94962.00
2023-04-29T05:43:44.197Z,94962.00
2023-04-29T05:44:44.241Z,94960.00
2023-04-29T05:45:44.322Z,94958.00
2023-04-29T05:46:44.568Z,94958.00
2023-04-29T05:47:44.486Z,94958.00
2023-04-29T05:48:44.468Z,94960.00
2023-04-29T05:49:44.538Z,94960.00
2023-04-29T05:50:44.606Z,94962.00
2023-04-29T05:51:44.697Z,94962.00
2023-04-29T05:52:44.744Z,94966.00
2023-04-29T05:53:44.802Z,94964.00
2023-04-29T05:54:44.818Z,94966.00
2023-04-29T05:55:44.997Z,94964.00
2023-04-29T05:56:44.936Z,94962.00
2023-04-29T05:57:45.006Z,94958.00
2023-04-29T05:58:45.076Z,94962.00
2023-04-29T05:59:45.131Z,94960.00
2023-04-29T06:00:45.194Z,94962.00
2023-04-29T06:01:45.219Z,94962.00
2023-04-29T06:02:57.576Z,94962.00
2023-04-29T06:03:46.505Z,94964.00
2023-04-29T06:04:45.491Z,94964.00
2023-04-29T06:05:45.665Z,94964.00
2023-04-29T06:06:45.281Z,94964.00
2023-04-29T06:07:45.234Z,94968.00
2023-04-29T06:08:45.249Z,94968.00
2023-04-29T06:09:45.266Z,94968.00
2023-04-29T06:10:45.250Z,94968.00
2023-04-29T06:11:45.240Z,94968.00
2023-04-29T06:12:45.251Z,94970.00
2023-04-29T06:13:45.279Z,94970.00
2023-04-29T06:14:45.336Z,94973.00
2023-04-29T06:15:45.454Z,94975.00
2023-04-29T06:16:45.461Z,94972.00
2023-04-29T06:17:45.514Z,94977.00
2023-04-29T06:18:45.555Z,94977.00
2023-04-29T06:19:45.586Z,94977.00
2023-04-29T06:20:45.656Z,94977.00
2023-04-29T06:21:45.685Z,94979.00
2023-04-29T06:22:45.742Z,94981.00
2023-04-29T06:23:45.790Z,94981.00
2023-04-29T06:24:45.832Z,94981.00
2023-04-29T06:25:45.909Z,94977.00
2023-04-29T06:26:45.948Z,94975.00
2023-04-29T06:27:45.989Z,94979.00
2023-04-29T06:28:46.048Z,94977.00
2023-04-29T06:29:46.124Z,94977.00
2023-04-29T06:30:46.154Z,94977.00
2023-04-29T06:31:46.249Z,94975.00
2023-04-29T06:32:46.246Z,94975.00
2023-04-29T06:33:46.299Z,94977.00
2023-04-29T06:34:46.345Z,94975.00
2023-04-29T06:35:46.376Z,94975.00
2023-04-29T06:36:46.446Z,94977.00
2023-04-29T06:37:46.455Z,94979.00
2023-04-29T06:38:46.485Z,94977.00
2023-04-29T06:39:46.550Z,94977.00
2023-04-29T06:40:46.596Z,94975.00
2023-04-29T06:41:46.608Z,94973.00
2023-04-29T06:42:46.641Z,94973.00
2023-04-29T06:43:48.060Z,94977.00
2023-04-29T06:44:46.714Z,94973.00
2023-04-29T06:45:46.772Z,94973.00
2023-04-29T06:46:46.859Z,94973.00
2023-04-29T06:47:46.923Z,94977.00
2023-04-29T06:48:46.882Z,94975.00
2023-04-29T06:49:46.895Z,94973.00
2023-04-29T06:50:46.926Z,94975.00
2023-04-29T06:51:46.981Z,94975.00
2023-04-29T06:52:46.987Z,94975.00
2023-04-29T06:53:47.025Z,94973.00
2023-04-29T06:54:47.049Z,94972.00
2023-04-29T06:55:47.095Z,94972.00
2023-04-29T06:56:47.113Z,94972.00
2023-04-29T06:57:47.128Z,94968.00
2023-04-29T06:58:47.144Z,94968.00
2023-04-29T06:59:47.184Z,94968.00
2023-04-29T07:00:47.269Z,94968.00
2023-04-29T07:01:49.599Z,94966.00
2023-04-29T07:02:47.279Z,94973.00
2023-04-29T07:03:47.351Z,94972.00
2023-04-29T07:04:47.196Z,94973.00
2023-04-29T07:05:47.154Z,94975.00
2023-04-29T07:06:47.393Z,94975.00
2023-04-29T07:07:47.167Z,94973.00
2023-04-29T07:08:47.165Z,94973.00
2023-04-29T07:09:47.142Z,94973.00
2023-04-29T07:10:47.138Z,94972.00
2023-04-29T07:11:47.136Z,94972.00
2023-04-29T07:12:47.146Z,94970.00
2023-04-29T07:13:47.126Z,94970.00
2023-04-29T07:14:47.108Z,94968.00
2023-04-29T07:15:47.086Z,94968.00
2023-04-29T07:16:47.163Z,94968.00
2023-04-29T07:17:47.128Z,94970.00
2023-04-29T07:18:47.107Z,94968.00
2023-04-29T07:19:47.064Z,94970.00
2023-04-29T07:20:47.074Z,94970.00
2023-04-29T07:21:47.100Z,94972.00
2023-04-29T07:22:47.081Z,94970.00
2023-04-29T07:23:47.061Z,94962.00
2023-04-29T07:24:47.051Z,94962.00
2023-04-29T07:25:47.042Z,94962.00
2023-04-29T07:26:47.072Z,94962.00
2023-04-29T07:27:47.028Z,94958.00
2023-04-29T07:28:47.025Z,94962.00
2023-04-29T07:29:47.036Z,94962.00
2023-04-29T07:30:47.077Z,94964.00
2023-04-29T07:31:47.008Z,94964.00
2023-04-29T07:32:47.113Z,94964.00
2023-04-29T07:33:46.988Z,94962.00
2023-04-29T07:34:46.993Z,94960.00
2023-04-29T07:35:46.996Z,94958.00
2023-04-29T07:36:46.984Z,94960.00
2023-04-29T07:37:47.012Z,94958.00
2023-04-29T07:38:46.979Z,94958.00
2023-04-29T07:39:46.940Z,94958.00
2023-04-29T07:40:46.963Z,94958.00
2023-04-29T07:41:46.982Z,94956.00
2023-04-29T07:42:46.956Z,94954.00
2023-04-29T07:43:46.969Z,94952.00
2023-04-29T07:44:46.911Z,94950.00
2023-04-29T07:45:46.912Z,94946.00
2023-04-29T07:46:46.968Z,94944.00
2023-04-29T07:47:46.928Z,94946.00
2023-04-29T07:48:46.903Z,94940.00
2023-04-29T07:49:46.884Z,94942.00
2023-04-29T07:50:46.887Z,94948.00
2023-04-29T07:51:46.872Z,94946.00
2023-04-29T07:52:46.884Z,94944.00
2023-04-29T07:53:46.842Z,94942.00
2023-04-29T07:54:46.856Z,94942.00
2023-04-29T07:55:46.827Z,94942.00
2023-04-29T07:56:46.842Z,94940.00
2023-04-29T07:57:46.833Z,94938.00
2023-04-29T07:58:46.816Z,94936.00
2023-04-29T07:59:46.799Z,94936.00
2023-04-29T08:00:46.818Z,94936.00
2023-04-29T08:01:46.825Z,94936.00
2023-04-29T08:02:46.975Z,94932.00
2023-04-29T08:03:47.019Z,94934.00
2023-04-29T08:04:47.097Z,94934.00
2023-04-29T08:05:46.806Z,94934.00
2023-04-29T08:06:46.798Z,94936.00
2023-04-29T08:07:46.768Z,94934.00
2023-04-29T08:08:46.745Z,94934.00
2023-04-29T08:09:46.741Z,94936.00
2023-04-29T08:10:46.739Z,94934.00
2023-04-29T08:11:46.747Z,94934.00
2023-04-29T08:12:46.755Z,94932.00
2023-04-29T08:13:46.748Z,94934.00
2023-04-29T08:14:46.689Z,94934.00
2023-04-29T08:15:46.779Z,94934.00
2023-04-29T08:16:46.717Z,94934.00
2023-04-29T08:17:46.737Z,94932.00
2023-04-29T08:18:46.691Z,94932.00
2023-04-29T08:19:46.682Z,94932.00
2023-04-29T08:20:46.685Z,94928.00
2023-04-29T08:21:46.679Z,94928.00
2023-04-29T08:22:46.676Z,94925.00
2023-04-29T08:23:46.646Z,94919.00
2023-04-29T08:24:46.744Z,94919.00
2023-04-29T08:25:46.796Z,94915.00
2023-04-29T08:26:46.863Z,94917.00
2023-04-29T08:27:46.910Z,94915.00
2023-04-29T08:28:46.967Z,94917.00
2023-04-29T08:29:47.048Z,94913.00
2023-04-29T08:30:47.123Z,94915.00
2023-04-29T08:31:47.206Z,94919.00
2023-04-29T08:32:47.342Z,94917.00
2023-04-29T08:33:47.274Z,94919.00
2023-04-29T08:34:47.366Z,94921.00
2023-04-29T08:35:47.395Z,94923.00
2023-04-29T08:36:47.463Z,94919.00
2023-04-29T08:37:47.511Z,94921.00
2023-04-29T08:38:47.607Z,94915.00
2023-04-29T08:39:47.709Z,94917.00
2023-04-29T08:40:47.700Z,94915.00
2023-04-29T08:41:47.785Z,94915.00
2023-04-29T08:42:49.080Z,94915.00
2023-04-29T08:43:47.864Z,94915.00
2023-04-29T08:44:47.964Z,94913.00
2023-04-29T08:45:48.035Z,94913.00
2023-04-29T08:46:48.063Z,94915.00
2023-04-29T08:47:48.150Z,94913.00
2023-04-29T08:48:48.385Z,94915.00
2023-04-29T08:49:48.255Z,94909.00
2023-04-29T08:50:48.294Z,94909.00
2023-04-29T08:51:48.350Z,94907.00
2023-04-29T08:52:48.379Z,94905.00
2023-04-29T08:53:48.446Z,94903.00
2023-04-29T08:54:48.752Z,94897.00
2023-04-29T08:55:48.536Z,94899.00
2023-04-29T08:56:48.581Z,94901.00
2023-04-29T08:57:48.630Z,94901.00
2023-04-29T08:58:48.693Z,94899.00
2023-04-29T08:59:48.719Z,94897.00
2023-04-29T09:00:48.796Z,94897.00
2023-04-29T09:01:48.850Z,94897.00
2023-04-29T09:02:48.911Z,94897.00
2023-04-29T09:03:49.094Z,94895.00
2023-04-29T09:04:49.071Z,94897.00
2023-04-29T09:05:48.996Z,94895.00
2023-04-29T09:06:49.070Z,94883.00
2023-04-29T09:07:49.144Z,94880.00
2023-04-29T09:08:49.173Z,94880.00
2023-04-29T09:09:49.238Z,94881.00
2023-04-29T09:10:49.254Z,94880.00
2023-04-29T09:11:49.327Z,94881.00
2023-04-29T09:12:49.401Z,94880.00
2023-04-29T09:13:49.409Z,94878.00
2023-04-29T09:14:49.472Z,94876.00
2023-04-29T09:15:49.523Z,94872.00
2023-04-29T09:16:49.703Z,94874.00
2023-04-29T09:17:49.620Z,94870.00
2023-04-29T09:18:49.615Z,94868.00
2023-04-29T09:19:49.673Z,94872.00
2023-04-29T09:20:49.766Z,94870.00
2023-04-29T09:21:49.792Z,94872.00
2023-04-29T09:22:49.824Z,94870.00
2023-04-29T09:23:49.823Z,94870.00
2023-04-29T09:24:49.889Z,94870.00
2023-04-29T09:25:49.951Z,94864.00
2023-04-29T09:26:51.769Z,94866.00
2023-04-29T09:27:50.064Z,94866.00
2023-04-29T09:28:50.076Z,94864.00
2023-04-29T09:29:50.123Z,94866.00
2023-04-29T09:30:50.184Z,94864.00
2023-04-29T09:31:50.301Z,94864.00
2023-04-29T09:32:50.280Z,94860.00
2023-04-29T09:33:50.328Z,94854.00
2023-04-29T09:34:50.519Z,94860.00
2023-04-29T09:35:50.419Z,94858.00
2023-04-29T09:36:50.471Z,94854.00
2023-04-29T09:37:50.485Z,94856.00
2023-04-29T09:38:50.518Z,94858.00
2023-04-29T09:39:50.568Z,94854.00
2023-04-29T09:40:58.100Z,94854.00
2023-04-29T09:41:51.595Z,94854.00
2023-04-29T09:42:50.598Z,94854.00
2023-04-29T09:43:50.606Z,94850.00
2023-04-29T09:44:50.623Z,94850.00
2023-04-29T09:45:50.597Z,94848.00
2023-04-29T09:46:50.568Z,94848.00
2023-04-29T09:47:50.558Z,94848.00
2023-04-29T09:48:50.542Z,94850.00
2023-04-29T09:49:50.548Z,94848.00
2023-04-29T09:50:50.546Z,94850.00
2023-04-29T09:51:50.532Z,94848.00
2023-04-29T09:52:50.493Z,94850.00
2023-04-29T09:53:50.504Z,94848.00
2023-04-29T09:54:50.543Z,94850.00
2023-04-29T09:55:50.562Z,94848.00
2023-04-29T09:56:50.590Z,94846.00
2023-04-29T09:57:50.624Z,94848.00
2023-04-29T09:58:50.628Z,94842.00
2023-04-29T09:59:50.661Z,94844.00
2023-04-29T10:00:50.671Z,94844.00
2023-04-29T10:01:50.767Z,94842.00
2023-04-29T10:02:50.816Z,94842.00
2023-04-29T10:03:50.822Z,94842.00
2023-04-29T10:04:50.975Z,94844.00
2023-04-29T10:05:50.829Z,94840.00
2023-04-29T10:06:50.849Z,94840.00
2023-04-29T10:07:50.840Z,94836.00
2023-04-29T10:08:50.899Z,94838.00
2023-04-29T10:09:50.906Z,94836.00
2023-04-29T10:10:50.960Z,94834.00
2023-04-29T10:11:51.002Z,94836.00
2023-04-29T10:12:51.012Z,94834.00
2023-04-29T10:13:51.025Z,94833.00
2023-04-29T10:14:51.337Z,94834.00
2023-04-29T10:15:51.132Z,94831.00
2023-04-29T10:16:51.124Z,94834.00
2023-04-29T10:17:51.177Z,94831.00
2023-04-29T10:18:51.163Z,94833.00
2023-04-29T10:19:51.190Z,94836.00
2023-04-29T10:20:51.191Z,94836.00
2023-04-29T10:21:51.236Z,94833.00
2023-04-29T10:22:51.251Z,94833.00
2023-04-29T10:23:51.288Z,94831.00
2023-04-29T10:24:51.397Z,94829.00
2023-04-29T10:25:51.349Z,94825.00
2023-04-29T10:26:51.376Z,94821.00
2023-04-29T10:27:51.375Z,94819.00
2023-04-29T10:28:51.425Z,94813.00
2023-04-29T10:29:51.413Z,94811.00
2023-04-29T10:30:51.437Z,94809.00
2023-04-29T10:31:51.529Z,94811.00
2023-04-29T10:32:52.514Z,94809.00
2023-04-29T10:33:51.532Z,94809.00
2023-04-29T10:34:51.701Z,94807.00
2023-04-29T10:35:51.576Z,94805.00
2023-04-29T10:36:51.599Z,94803.00
2023-04-29T10:37:51.615Z,94801.00
2023-04-29T10:38:51.643Z,94799.00
2023-04-29T10:39:51.638Z,94797.00
2023-04-29T10:40:51.663Z,94797.00
2023-04-29T10:41:51.717Z,94797.00
2023-04-29T10:42:51.715Z,94797.00
2023-04-29T10:43:51.701Z,94793.00
2023-04-29T10:44:51.892Z,94791.00
2023-04-29T10:45:51.790Z,94793.00
2023-04-29T10:46:51.813Z,94791.00
2023-04-29T10:47:51.848Z,94787.00
2023-04-29T10:48:51.829Z,94783.00
2023-04-29T10:49:51.861Z,94783.00
2023-04-29T10:50:51.860Z,94778.00
2023-04-29T10:51:51.924Z,94776.00
2023-04-29T10:52:51.935Z,94776.00
2023-04-29T10:53:51.976Z,94772.00
2023-04-29T10:54:52.177Z,94768.00
2023-04-29T10:55:51.973Z,94770.00
2023-04-29T10:56:52.052Z,94770.00
2023-04-29T10:57:52.006Z,94770.00
2023-04-29T10:58:52.057Z,94768.00
2023-04-29T10:59:52.125Z,94770.00
2023-04-29T11:00:52.164Z,94768.00
2023-04-29T11:01:52.148Z,94764.00
2023-04-29T11:02:52.217Z,94764.00
2023-04-29T11:03:52.453Z,94764.00
2023-04-29T11:04:52.668Z,94762.00
2023-04-29T11:05:52.251Z,94760.00
2023-04-29T11:06:52.304Z,94758.00
2023-04-29T11:07:52.318Z,94758.00
2023-04-29T11:08:52.366Z,94756.00
2023-04-29T11:09:52.562Z,94756.00
2023-04-29T11:10:52.370Z,94756.00
2023-04-29T11:11:52.402Z,94754.00
2023-04-29T11:12:52.400Z,94752.00
2023-04-29T11:13:52.447Z,94752.00
2023-04-29T11:14:52.720Z,94750.00
2023-04-29T11:15:52.494Z,94752.00
2023-04-29T11:16:52.584Z,94752.00
2023-04-29T11:17:52.563Z,94752.00
2023-04-29T11:18:52.568Z,94754.00
2023-04-29T11:19:53.092Z,94756.00
2023-04-29T11:20:52.580Z,94758.00
2023-04-29T11:21:52.619Z,94760.00
2023-04-29T11:22:52.688Z,94762.00
2023-04-29T11:23:52.642Z,94762.00
2023-04-29T11:24:52.999Z,94758.00
2023-04-29T11:25:52.691Z,94758.00
2023-04-29T11:26:52.753Z,94760.00
2023-04-29T11:27:52.731Z,94762.00
2023-04-29T11:28:52.740Z,94764.00
2023-04-29T11:29:52.796Z,94764.00
2023-04-29T11:30:52.810Z,94762.00
2023-04-29T11:31:52.927Z,94766.00
2023-04-29T11:32:52.978Z,94768.00
2023-04-29T11:33:52.901Z,94770.00
2023-04-29T11:34:53.224Z,94770.00
2023-04-29T11:35:52.941Z,94778.00
2023-04-29T11:36:53.326Z,94778.00
2023-04-29T11:37:53.003Z,94776.00
2023-04-29T11:38:53.002Z,94774.00
2023-04-29T11:39:53.044Z,94776.00
2023-04-29T11:40:53.051Z,94778.00
2023-04-29T11:41:53.123Z,94781.00
2023-04-29T11:42:53.150Z,94787.00
2023-04-29T11:43:53.145Z,94787.00
2023-04-29T11:44:53.363Z,94787.00